createdAt,value
2022-08-26T00:01:09.465Z,0
2022-08-26T00:06:13.604Z,0
2022-08-26T00:16:22.052Z,0
2022-08-26T00:21:26.084Z,0
2022-08-26T00:26:30.240Z,0
2022-08-26T00:31:34.446Z,0
2022-08-26T00:36:38.585Z,0
2022-08-26T00:41:42.732Z,0
2022-08-26T00:46:47.211Z,0
2022-08-26T00:51:51.073Z,0
2022-08-26T00:56:55.211Z,0
2022-08-26T01:01:59.415Z,0
2022-08-26T01:07:03.524Z,0
2022-08-26T01:12:05.819Z,0
2022-08-26T01:17:09.996Z,0
2022-08-26T01:22:12.376Z,0
2022-08-26T01:27:16.380Z,0
2022-08-26T01:32:18.665Z,0
2022-08-26T01:37:22.849Z,0
2022-08-26T01:42:25.107Z,0
2022-08-26T01:47:30.036Z,0
2022-08-26T01:52:33.393Z,0
2022-08-26T01:57:37.567Z,0
2022-08-26T02:02:41.892Z,0
2022-08-26T02:07:45.887Z,0
2022-08-26T02:12:50.064Z,0
2022-08-26T02:17:54.242Z,0
2022-08-26T02:22:58.377Z,0
2022-08-26T02:28:02.516Z,0
2022-08-26T02:33:06.876Z,0
2022-08-26T02:38:11.201Z,0
2022-08-26T02:43:15.019Z,0
2022-08-26T02:48:19.159Z,0
2022-08-26T02:53:25.405Z,0
2022-08-26T02:58:27.515Z,0
2022-08-26T03:03:31.629Z,0
2022-08-26T03:08:35.825Z,0
2022-08-26T03:13:39.971Z,0
2022-08-26T03:18:44.154Z,0
2022-08-26T03:23:48.380Z,0
2022-08-26T03:28:50.566Z,0
2022-08-26T03:33:57.630Z,0
2022-08-26T03:38:58.901Z,0
2022-08-26T03:44:03.020Z,0
2022-08-26T03:49:07.169Z,0
2022-08-26T03:54:11.353Z,0
2022-08-26T03:59:15.528Z,0
2022-08-26T04:04:22.799Z,0
2022-08-26T04:09:23.821Z,1
2022-08-26T04:14:27.996Z,5
2022-08-26T04:19:32.138Z,11
2022-08-26T04:24:36.277Z,22
2022-08-26T04:29:40.439Z,44
2022-08-26T04:34:44.954Z,69
2022-08-26T04:39:48.809Z,102
2022-08-26T04:44:52.958Z,137
2022-08-26T04:49:57.118Z,145
2022-08-26T04:55:01.277Z,161
2022-08-26T05:00:05.414Z,178
2022-08-26T05:05:09.572Z,276
2022-08-26T05:10:13.730Z,331
2022-08-26T05:15:16.033Z,412
2022-08-26T05:20:25.191Z,476
2022-08-26T05:25:22.472Z,590
2022-08-26T05:30:26.604Z,640
2022-08-26T05:35:30.755Z,900
2022-08-26T05:40:34.970Z,1105
2022-08-26T05:45:43.544Z,1222
2022-08-26T05:50:43.237Z,1405
2022-08-26T05:55:47.381Z,2035
2022-08-26T06:00:51.545Z,2153
2022-08-26T06:05:55.740Z,2195
2022-08-26T06:10:59.917Z,2127
2022-08-26T06:16:04.117Z,2400
2022-08-26T06:21:08.234Z,2556
2022-08-26T06:26:12.327Z,2414
2022-08-26T06:31:16.559Z,2734
2022-08-26T06:36:20.955Z,2792
2022-08-26T06:41:24.829Z,2723
2022-08-26T06:46:29.000Z,3100
2022-08-26T06:51:33.152Z,3264
2022-08-26T06:56:35.381Z,3209
2022-08-26T07:01:43.063Z,3222
2022-08-26T07:06:43.704Z,3164
2022-08-26T07:11:45.965Z,4017
2022-08-26T07:16:50.414Z,3419
2022-08-26T07:21:52.431Z,3442
2022-08-26T07:26:56.579Z,4361
2022-08-26T07:32:00.739Z,5275
2022-08-26T07:37:04.888Z,5645
2022-08-26T07:42:09.058Z,5727
2022-08-26T07:47:25.490Z,5231
2022-08-26T07:52:17.362Z,5346
2022-08-26T07:57:21.534Z,5426
2022-08-26T08:02:25.689Z,4287
2022-08-26T08:07:44.697Z,4367
2022-08-26T08:17:38.148Z,5310
2022-08-26T08:22:42.307Z,4933
2022-08-26T08:27:46.490Z,4986
2022-08-26T08:32:50.657Z,5183
2022-08-26T08:37:54.846Z,4816
2022-08-26T08:42:59.050Z,5000
2022-08-26T08:48:03.163Z,5495
2022-08-26T08:53:08.855Z,5604
2022-08-26T08:58:11.564Z,6061
2022-08-26T09:03:15.600Z,5971
2022-08-26T09:08:20.028Z,5973
2022-08-26T09:13:25.244Z,7409
2022-08-26T09:18:26.184Z,7265
2022-08-26T09:23:28.468Z,7756
2022-08-26T09:28:32.618Z,7267
2022-08-26T09:33:36.777Z,8089
2022-08-26T09:38:40.951Z,9312
2022-08-26T09:43:45.556Z,10338
2022-08-26T09:48:51.657Z,10195
2022-08-26T09:53:53.417Z,9779
2022-08-26T09:58:57.586Z,10757
2022-08-26T10:04:01.749Z,8685
2022-08-26T10:09:08.957Z,8241
2022-08-26T10:14:10.052Z,7024
2022-08-26T10:19:14.211Z,7679
2022-08-26T10:24:18.368Z,7340
2022-08-26T10:29:22.556Z,7490
2022-08-26T10:34:26.690Z,7153
2022-08-26T10:39:30.839Z,6111
2022-08-26T10:44:34.989Z,7470
2022-08-26T10:49:39.181Z,7957
2022-08-26T10:54:43.286Z,8554
2022-08-26T10:59:47.484Z,6780
2022-08-26T11:04:51.755Z,5711
2022-08-26T11:09:53.888Z,6649
2022-08-26T11:14:59.074Z,8831
2022-08-26T11:20:02.208Z,8289
2022-08-26T11:25:04.468Z,9882
2022-08-26T11:30:06.788Z,8217
2022-08-26T11:35:10.903Z,8573
2022-08-26T11:40:15.113Z,7755
2022-08-26T11:45:19.344Z,7770
2022-08-26T11:50:23.416Z,7005
2022-08-26T11:55:29.534Z,6934
2022-08-26T12:00:33.704Z,7094
2022-08-26T12:05:35.869Z,8030
2022-08-26T12:10:40.038Z,9664
2022-08-26T12:15:44.172Z,8080
2022-08-26T12:20:48.425Z,6057
2022-08-26T12:25:52.495Z,6585
2022-08-26T12:30:56.689Z,6923
2022-08-26T12:36:01.104Z,8546
2022-08-26T12:41:04.985Z,6898
2022-08-26T12:51:13.278Z,6165
2022-08-26T12:56:17.470Z,7565
2022-08-26T13:01:21.668Z,7591
2022-08-26T13:06:25.801Z,6090
2022-08-26T13:11:29.963Z,5472
2022-08-26T13:16:34.139Z,4907
2022-08-26T13:21:37.390Z,5915
2022-08-26T13:26:40.530Z,4540
2022-08-26T13:31:42.812Z,4612
2022-08-26T13:36:46.944Z,3749
2022-08-26T13:41:51.103Z,4202
2022-08-26T13:46:55.256Z,4155
2022-08-26T13:51:59.489Z,3850
2022-08-26T13:57:03.568Z,3582
2022-08-26T14:02:07.733Z,4572
2022-08-26T14:07:11.913Z,3987
2022-08-26T14:12:16.101Z,4870
2022-08-26T14:17:20.214Z,5213
2022-08-26T14:22:24.350Z,5595
2022-08-26T14:27:28.538Z,5130
2022-08-26T14:32:32.715Z,4734
2022-08-26T14:37:36.854Z,5197
2022-08-26T14:42:41.030Z,4439
2022-08-26T14:47:45.150Z,4387
2022-08-26T14:52:49.357Z,3626
2022-08-26T14:57:53.462Z,2945
2022-08-26T15:02:57.794Z,3514
2022-08-26T15:08:01.795Z,3695
2022-08-26T15:13:05.980Z,3342
2022-08-26T15:18:08.366Z,3571
2022-08-26T15:23:12.397Z,3353
2022-08-26T15:28:14.666Z,3004
2022-08-26T15:33:18.872Z,3528
2022-08-26T15:38:22.984Z,3746
2022-08-26T15:43:29.006Z,3975
2022-08-26T15:48:31.340Z,4167
2022-08-26T15:53:35.449Z,2992
2022-08-26T15:58:39.620Z,2615
2022-08-26T16:03:43.763Z,2185
2022-08-26T16:08:47.957Z,2104
2022-08-26T16:13:52.113Z,2385
2022-08-26T16:18:56.260Z,1945
2022-08-26T16:24:00.415Z,1840
2022-08-26T16:29:04.558Z,1946
2022-08-26T16:34:08.718Z,2052
2022-08-26T16:39:12.897Z,1741
2022-08-26T16:44:17.021Z,1991
2022-08-26T16:49:21.223Z,1488
2022-08-26T16:54:25.380Z,1022
2022-08-26T16:59:29.498Z,898
2022-08-26T17:04:33.700Z,900
2022-08-26T17:09:37.866Z,807
2022-08-26T17:14:40.077Z,681
2022-08-26T17:19:47.259Z,550
2022-08-26T17:24:48.436Z,455
2022-08-26T17:29:50.719Z,453
2022-08-26T17:34:54.825Z,382
2022-08-26T17:39:59.061Z,305
2022-08-26T17:45:03.194Z,282
2022-08-26T17:50:07.355Z,263
2022-08-26T17:55:11.484Z,237
2022-08-26T18:00:15.625Z,175
2022-08-26T18:05:19.817Z,144
2022-08-26T18:10:24.391Z,108
2022-08-26T18:15:28.305Z,109
2022-08-26T18:20:32.285Z,91
2022-08-26T18:25:36.460Z,75
2022-08-26T18:30:40.655Z,60
2022-08-26T18:35:44.787Z,37
2022-08-26T18:40:48.897Z,19
2022-08-26T18:45:53.140Z,10
2022-08-26T18:50:57.231Z,5
2022-08-26T18:56:01.379Z,2
2022-08-26T19:01:05.785Z,0
2022-08-26T19:06:09.689Z,0
2022-08-26T19:11:14.032Z,0
2022-08-26T19:16:18.111Z,0
2022-08-26T19:21:20.286Z,0
2022-08-26T19:26:24.460Z,0
2022-08-26T19:31:26.827Z,0
2022-08-26T19:36:30.899Z,0
2022-08-26T19:41:37.610Z,0
2022-08-26T19:51:43.562Z,0
2022-08-26T19:56:49.594Z,0
2022-08-26T20:02:00.418Z,0
2022-08-26T20:06:57.860Z,0
2022-08-26T20:11:59.996Z,0
2022-08-26T20:17:04.271Z,0
2022-08-26T20:22:08.288Z,0
2022-08-26T20:27:12.478Z,0
2022-08-26T20:32:16.737Z,0
2022-08-26T20:37:21.659Z,0
2022-08-26T20:42:24.950Z,0
2022-08-26T20:47:29.181Z,0
2022-08-26T20:52:33.286Z,0
2022-08-26T20:57:37.412Z,0
2022-08-26T21:02:41.610Z,0
2022-08-26T21:07:45.743Z,0
2022-08-26T21:12:49.907Z,0
2022-08-26T21:17:54.434Z,0
2022-08-26T21:22:56.343Z,0
2022-08-26T21:28:00.505Z,0
2022-08-26T21:33:04.671Z,0
2022-08-26T21:38:09.093Z,0
2022-08-26T21:43:16.205Z,0
2022-08-26T21:48:17.131Z,0
2022-08-26T21:53:21.293Z,0
2022-08-26T21:58:25.438Z,0
2022-08-26T22:03:29.624Z,0
2022-08-26T22:08:33.733Z,0
2022-08-26T22:13:37.927Z,0
2022-08-26T22:18:46.826Z,0
2022-08-26T22:28:50.647Z,0
2022-08-26T22:33:54.579Z,0
2022-08-26T22:38:58.732Z,0
2022-08-26T22:44:02.879Z,0
2022-08-26T22:49:07.096Z,0
2022-08-26T22:54:11.200Z,0
2022-08-26T22:59:15.383Z,0
2022-08-26T23:04:17.613Z,0
2022-08-26T23:09:21.803Z,0
2022-08-26T23:14:24.074Z,0
2022-08-26T23:19:28.232Z,0
2022-08-26T23:24:30.515Z,0
2022-08-26T23:29:34.647Z,0
2022-08-26T23:34:38.811Z,0
2022-08-26T23:39:42.953Z,0
2022-08-26T23:44:47.132Z,0
2022-08-26T23:49:51.271Z,0
2022-08-26T23:54:55.462Z,0
2022-08-26T23:59:57.712Z,0
